Time;durP1;ratioP1;P1;durP2;ratioP2;P2;SDS_P1;SDS_P2;PMS_P1;PMS_P2;Temp;Humidity;BMP_temperature;BMP_pressure;BME280_temperature;BME280_humidity;BME280_pressure;Samples;Min_cycle;Max_cycle;Signal;HPM_P1;HPM_P2
2021/01/29 00:00:09;;;;;;;7.30;1.25;;;19.10;99.90;;;;;;4992071;28;21235;-78
2021/01/29 00:02:36;;;;;;;11.10;1.67;;;19.10;99.90;;;;;;4993086;28;20392;-79
2021/01/29 00:05:03;;;;;;;6.82;1.20;;;19.10;99.90;;;;;;4994717;28;20880;-80
2021/01/29 00:07:30;;;;;;;9.85;1.35;;;19.20;99.90;;;;;;4995962;28;20383;-80
2021/01/29 00:09:57;;;;;;;7.75;1.52;;;19.10;99.90;;;;;;4994302;28;20853;-78
2021/01/29 00:12:25;;;;;;;8.68;1.50;;;19.10;99.90;;;;;;4988051;28;20856;-76
2021/01/29 00:14:53;;;;;;;12.82;2.05;;;19.10;99.90;;;;;;4989098;28;20404;-77
2021/01/29 00:17:20;;;;;;;9.38;1.90;;;19.00;99.90;;;;;;4990104;28;20502;-77
2021/01/29 00:19:47;;;;;;;10.48;1.88;;;18.90;99.90;;;;;;4990720;28;20499;-78
2021/01/29 00:22:14;;;;;;;10.63;2.25;;;18.90;99.90;;;;;;4990534;28;20791;-78
2021/01/29 00:24:41;;;;;;;16.48;2.60;;;18.90;99.90;;;;;;4989396;28;20581;-78
2021/01/29 00:27:08;;;;;;;16.02;2.80;;;18.90;99.90;;;;;;4989253;28;20515;-76
2021/01/29 00:29:35;;;;;;;16.15;2.63;;;18.90;99.90;;;;;;4988512;28;20476;-77
2021/01/29 00:32:02;;;;;;;12.35;2.00;;;19.00;99.90;;;;;;4987522;28;20432;-78
2021/01/29 00:34:29;;;;;;;13.13;2.25;;;18.90;99.90;;;;;;4980959;28;20409;-78
2021/01/29 00:36:56;;;;;;;9.25;1.73;;;19.00;99.90;;;;;;4983268;28;20610;-77
2021/01/29 00:39:23;;;;;;;9.53;1.77;;;19.10;99.90;;;;;;4991071;28;20532;-76
2021/01/29 00:41:50;;;;;;;10.00;1.90;;;19.00;99.90;;;;;;4989382;28;20948;-76
2021/01/29 00:44:17;;;;;;;9.80;1.70;;;19.10;99.90;;;;;;4988751;28;20454;-78
2021/01/29 00:46:47;;;;;;;10.13;1.60;;;19.10;99.90;;;;;;4988419;28;20393;-77
2021/01/29 00:49:14;;;;;;;10.68;1.92;;;19.20;99.90;;;;;;4980252;28;20913;-78
2021/01/29 00:51:41;;;;;;;8.20;1.65;;;19.20;99.90;;;;;;4989024;28;20412;-78
2021/01/29 00:54:08;;;;;;;13.93;2.17;;;19.20;99.90;;;;;;4986586;28;20408;-78
2021/01/29 00:56:41;;;;;;;8.07;1.50;;;19.30;99.90;;;;;;4984396;28;20404;-79
2021/01/29 00:59:08;;;;;;;8.63;2.07;;;19.30;99.90;;;;;;4986545;28;20391;-79
2021/01/29 01:01:35;;;;;;;7.03;1.63;;;19.40;99.90;;;;;;4975279;28;20928;-79
2021/01/29 01:04:02;;;;;;;8.40;1.65;;;19.40;99.90;;;;;;4985568;28;20540;-80
2021/01/29 01:06:29;;;;;;;7.47;1.40;;;19.50;99.90;;;;;;4986203;28;20389;-80
2021/01/29 01:08:56;;;;;;;8.77;1.75;;;19.40;99.90;;;;;;4989586;28;20397;-80
2021/01/29 01:11:23;;;;;;;9.00;1.63;;;19.40;99.90;;;;;;4988379;28;20413;-78
2021/01/29 01:13:50;;;;;;;6.03;1.33;;;19.40;99.90;;;;;;4991020;28;20709;-79
2021/01/29 01:16:17;;;;;;;10.48;1.63;;;19.30;99.90;;;;;;4989024;28;20393;-80
2021/01/29 01:18:44;;;;;;;12.02;2.20;;;19.30;99.90;;;;;;4981203;28;20396;-79
2021/01/29 01:21:11;;;;;;;8.98;2.10;;;19.40;99.90;;;;;;4986125;28;20855;-79
2021/01/29 01:23:38;;;;;;;8.87;2.13;;;19.30;99.90;;;;;;4977618;28;20389;-79
2021/01/29 01:26:05;;;;;;;12.63;2.53;;;19.30;99.90;;;;;;4990162;28;20403;-79
2021/01/29 01:28:32;;;;;;;11.55;2.30;;;19.30;99.90;;;;;;4996637;28;20872;-79
2021/01/29 01:30:59;;;;;;;10.38;1.95;;;19.40;99.90;;;;;;4990996;28;20733;-78
2021/01/29 01:33:26;;;;;;;16.20;2.70;;;19.40;99.90;;;;;;4988781;28;20734;-79
2021/01/29 01:35:53;;;;;;;9.63;2.20;;;19.40;99.90;;;;;;4979147;28;20489;-78
2021/01/29 01:38:20;;;;;;;11.20;2.40;;;19.40;99.90;;;;;;4986242;28;20517;-78
2021/01/29 01:40:48;;;;;;;11.98;2.10;;;19.30;99.90;;;;;;4984706;28;20431;-78
2021/01/29 01:43:15;;;;;;;12.38;2.33;;;19.30;99.90;;;;;;4992526;28;20737;-79
2021/01/29 01:46:04;;;;;;;13.65;2.58;;;19.30;99.90;;;;;;4987341;28;20401;-78
2021/01/29 01:48:49;;;;;;;16.45;2.97;;;19.50;99.90;;;;;;4986481;28;20900;-80
2021/01/29 01:51:42;;;;;;;16.05;2.80;;;19.50;99.90;;;;;;4988675;28;20521;-79
2021/01/29 01:54:22;;;;;;;15.88;2.63;;;19.50;99.90;;;;;;4974183;28;20397;-79
2021/01/29 01:56:55;;;;;;;18.27;2.88;;;19.50;99.90;;;;;;4970853;28;20412;-79
2021/01/29 01:59:28;;;;;;;15.88;2.65;;;19.40;99.90;;;;;;4987060;28;21086;-78
2021/01/29 02:01:56;;;;;;;12.03;2.40;;;19.40;99.90;;;;;;4982600;28;20404;-78
2021/01/29 02:04:30;;;;;;;12.48;2.50;;;19.30;99.90;;;;;;4987066;28;20484;-78
2021/01/29 02:07:43;;;;;;;12.52;2.45;;;19.30;99.90;;;;;;4988655;28;20747;-78
2021/01/29 02:10:11;;;;;;;10.43;1.85;;;19.40;99.90;;;;;;4973059;28;20746;-78
2021/01/29 02:12:42;;;;;;;12.00;2.17;;;19.50;99.90;;;;;;5004930;28;20435;-78
2021/01/29 02:15:20;;;;;;;12.75;2.50;;;19.40;99.90;;;;;;4988033;28;20403;-78
2021/01/29 02:17:56;;;;;;;16.60;2.20;;;19.40;99.90;;;;;;4986484;28;20447;-78
2021/01/29 02:20:47;;;;;;;12.77;2.45;;;19.40;99.90;;;;;;4969947;28;20383;-78
2021/01/29 02:23:51;;;;;;;11.20;2.60;;;19.40;99.90;;;;;;4994028;28;20402;-80
2021/01/29 02:26:39;;;;;;;9.88;2.15;;;19.40;99.90;;;;;;4974319;28;20841;-80
2021/01/29 02:29:38;;;;;;;8.95;1.88;;;19.40;99.90;;;;;;4968151;28;20433;-80
2021/01/29 02:32:44;;;;;;;3.75;0.98;;;19.50;99.90;;;;;;4979396;28;20877;-79
2021/01/29 02:35:29;;;;;;;6.00;1.50;;;19.50;99.90;;;;;;4965014;28;20414;-79
2021/01/29 02:38:26;;;;;;;6.93;1.48;;;19.40;99.90;;;;;;4970320;28;20394;-78
2021/01/29 02:41:07;;;;;;;7.43;1.92;;;19.50;99.90;;;;;;4970320;28;20410;-77
2021/01/29 02:43:59;;;;;;;11.05;1.85;;;19.50;99.90;;;;;;4984538;28;20384;-78
2021/01/29 02:46:33;;;;;;;8.43;1.70;;;19.50;99.90;;;;;;4965271;28;20743;-78
2021/01/29 02:49:18;;;;;;;10.32;1.83;;;19.50;99.90;;;;;;4964540;28;20762;-78
2021/01/29 02:52:31;;;;;;;9.77;1.73;;;19.50;99.90;;;;;;4966877;28;20437;-78
2021/01/29 02:55:29;;;;;;;6.57;1.43;;;19.50;99.90;;;;;;4966423;28;20394;-78
2021/01/29 02:58:18;;;;;;;8.05;1.58;;;19.50;99.90;;;;;;4967204;28;20493;-78
2021/01/29 03:00:53;;;;;;;9.88;1.58;;;19.50;99.90;;;;;;4964613;28;20969;-79
2021/01/29 03:03:30;;;;;;;10.15;1.77;;;19.50;99.90;;;;;;4966652;28;20890;-79
2021/01/29 03:06:01;;;;;;;9.93;1.80;;;19.50;99.90;;;;;;4966580;28;20390;-79
2021/01/29 03:08:38;;;;;;;8.10;1.52;;;19.40;99.90;;;;;;4969818;28;20371;-79
2021/01/29 03:11:16;;;;;;;10.57;2.00;;;19.50;99.90;;;;;;4967567;28;20414;-80
2021/01/29 03:13:56;;;;;;;8.05;1.55;;;19.40;99.90;;;;;;4961007;28;20402;-79
2021/01/29 03:17:06;;;;;;;9.00;1.42;;;19.50;99.90;;;;;;4967434;28;20456;-80
2021/01/29 03:19:58;;;;;;;9.60;1.75;;;19.50;99.90;;;;;;4961249;28;20937;-79
2021/01/29 03:22:34;;;;;;;5.27;1.20;;;19.60;99.90;;;;;;4960778;28;20394;-79
2021/01/29 03:25:28;;;;;;;4.90;1.10;;;19.60;99.90;;;;;;4983259;28;20432;-79
2021/01/29 03:28:19;;;;;;;6.13;1.45;;;19.70;99.90;;;;;;4986673;28;20419;-79
2021/01/29 03:30:50;;;;;;;4.72;0.90;;;19.70;99.90;;;;;;4985336;28;20451;-78
2021/01/29 03:33:21;;;;;;;6.55;1.13;;;19.80;99.90;;;;;;4970387;28;20437;-79
2021/01/29 03:36:08;;;;;;;9.25;1.10;;;19.90;99.90;;;;;;4987243;28;20477;-78
2021/01/29 03:38:44;;;;;;;6.07;1.02;;;20.00;99.90;;;;;;4987666;28;20518;-78
2021/01/29 03:41:36;;;;;;;3.75;0.95;;;19.90;99.90;;;;;;4967110;28;20900;-78
2021/01/29 03:44:05;;;;;;;4.70;0.85;;;19.90;99.90;;;;;;4969362;28;20375;-78
2021/01/29 03:46:50;;;;;;;5.53;1.00;;;19.80;99.90;;;;;;4982240;28;20532;-78
2021/01/29 03:49:48;;;;;;;2.75;0.70;;;19.80;99.90;;;;;;4992371;28;20384;-78
2021/01/29 03:52:36;;;;;;;3.53;0.70;;;19.90;99.90;;;;;;4983127;28;20391;-79
2021/01/29 03:55:41;;;;;;;4.38;0.75;;;19.80;99.90;;;;;;5007047;28;20410;-79
2021/01/29 03:58:55;;;;;;;2.93;0.50;;;20.00;99.90;;;;;;5011380;28;20387;-79
2021/01/29 04:01:33;;;;;;;1.45;0.43;;;20.00;99.90;;;;;;5009129;28;20402;-78
2021/01/29 04:04:28;;;;;;;2.40;0.38;;;19.90;99.90;;;;;;5003680;28;20380;-79
2021/01/29 04:07:16;;;;;;;1.10;0.30;;;20.00;99.90;;;;;;4992417;28;20432;-80
2021/01/29 04:09:46;;;;;;;2.72;0.40;;;20.00;99.90;;;;;;4991583;28;20388;-79
2021/01/29 04:12:18;;;;;;;2.70;0.60;;;19.90;99.90;;;;;;5004451;28;20399;-79
2021/01/29 04:15:11;;;;;;;2.00;0.52;;;19.90;99.90;;;;;;4995784;28;20393;-79
2021/01/29 04:17:44;;;;;;;1.98;0.60;;;19.90;99.90;;;;;;4970600;28;20476;-78
2021/01/29 04:20:25;;;;;;;3.38;0.75;;;19.90;99.90;;;;;;4995596;28;20478;-79
2021/01/29 04:22:55;;;;;;;1.83;0.70;;;19.90;99.90;;;;;;4993862;28;20717;-78
2021/01/29 04:25:31;;;;;;;0.85;0.30;;;19.90;99.90;;;;;;4989979;28;20466;-79
2021/01/29 04:28:09;;;;;;;3.40;0.40;;;19.90;99.90;;;;;;4978900;28;20439;-79
2021/01/29 04:30:39;;;;;;;3.53;0.50;;;19.90;99.90;;;;;;4991321;28;20400;-80
2021/01/29 04:33:12;;;;;;;2.30;0.40;;;20.00;99.90;;;;;;4994364;28;20394;-79
2021/01/29 04:35:40;;;;;;;1.63;0.30;;;20.10;99.90;;;;;;4995015;28;20389;-80
2021/01/29 04:38:35;;;;;;;1.98;0.50;;;20.10;99.90;;;;;;4980749;28;20414;-80
2021/01/29 04:41:46;;;;;;;2.17;0.40;;;20.20;99.90;;;;;;4988595;28;20393;-81
2021/01/29 04:44:13;;;;;;;1.27;0.30;;;20.20;99.90;;;;;;4991215;28;20452;-80
2021/01/29 04:47:02;;;;;;;1.48;0.40;;;20.20;99.90;;;;;;4991329;28;20845;-80
2021/01/29 04:49:35;;;;;;;2.25;0.30;;;20.10;99.90;;;;;;4991314;28;20416;-80
2021/01/29 04:52:46;;;;;;;1.10;0.30;;;20.20;99.90;;;;;;4986922;28;20913;-79
2021/01/29 04:55:38;;;;;;;0.43;0.17;;;20.20;99.90;;;;;;4983573;28;20397;-79
2021/01/29 04:58:14;;;;;;;0.50;0.20;;;20.10;99.90;;;;;;4991161;28;20389;-81
2021/01/29 05:01:23;;;;;;;0.57;0.27;;;19.90;99.90;;;;;;4988827;28;20449;-81
2021/01/29 05:04:47;;;;;;;0.88;0.30;;;19.90;99.90;;;;;;5002073;28;20395;-80
2021/01/29 05:07:41;;;;;;;1.25;0.30;;;19.90;99.90;;;;;;4924247;29;20890;-80
2021/01/29 05:10:32;;;;;;;1.50;0.20;;;19.80;99.90;;;;;;4931865;29;20957;-80
2021/01/29 05:13:23;;;;;;;1.97;0.33;;;19.80;99.90;;;;;;4977236;28;20415;-79
2021/01/29 05:15:53;;;;;;;0.87;0.30;;;19.80;99.90;;;;;;4986706;28;20456;-80
2021/01/29 05:18:29;;;;;;;1.10;0.30;;;19.80;99.90;;;;;;4991055;28;20361;-80
2021/01/29 05:21:11;;;;;;;1.38;0.25;;;20.00;99.90;;;;;;4990421;28;20424;-81
2021/01/29 05:23:53;;;;;;;0.95;0.25;;;19.90;99.90;;;;;;4989042;28;20450;-81
2021/01/29 05:26:38;;;;;;;2.38;0.30;;;19.90;99.90;;;;;;4990564;28;20891;-81
2021/01/29 05:29:42;;;;;;;1.05;0.30;;;20.00;99.90;;;;;;4993840;28;20418;-81
2021/01/29 05:32:27;;;;;;;0.27;0.20;;;19.90;99.90;;;;;;5005557;28;20430;-81
2021/01/29 05:35:22;;;;;;;2.03;0.22;;;20.00;99.90;;;;;;5009721;28;20769;-80
2021/01/29 05:38:20;;;;;;;1.60;0.40;;;19.80;99.90;;;;;;5010064;28;20391;-81
2021/01/29 05:41:26;;;;;;;2.13;0.32;;;19.80;99.90;;;;;;5000114;28;20404;-80
2021/01/29 05:44:44;;;;;;;2.45;0.50;;;19.80;99.90;;;;;;4926036;28;20857;-80
2021/01/29 05:47:47;;;;;;;2.80;0.57;;;19.80;99.90;;;;;;4946558;28;20448;-81
2021/01/29 05:50:35;;;;;;;2.27;0.43;;;19.70;99.90;;;;;;4989224;28;20899;-79
2021/01/29 05:53:23;;;;;;;2.13;0.60;;;19.60;99.90;;;;;;4989872;28;20412;-78
2021/01/29 05:56:08;;;;;;;4.63;0.57;;;19.60;99.90;;;;;;4987988;28;20876;-79
2021/01/29 05:59:11;;;;;;;1.33;0.40;;;19.70;99.90;;;;;;4988712;28;20409;-79
2021/01/29 06:02:10;;;;;;;1.90;0.30;;;19.60;99.90;;;;;;4986866;28;20781;-79
2021/01/29 06:04:49;;;;;;;0.85;0.20;;;19.70;99.90;;;;;;4968204;28;20402;-80
2021/01/29 06:07:37;;;;;;;1.20;0.38;;;19.60;99.90;;;;;;4970538;28;20592;-79
2021/01/29 06:10:32;;;;;;;2.30;0.30;;;19.70;99.90;;;;;;4985970;28;20784;-77
2021/01/29 06:13:18;;;;;;;2.40;0.30;;;19.60;99.90;;;;;;4989634;28;20380;-79
2021/01/29 06:16:05;;;;;;;2.17;0.20;;;19.60;99.90;;;;;;4988980;28;20389;-80
2021/01/29 06:18:50;;;;;;;3.35;0.32;;;19.60;99.90;;;;;;4989293;28;20404;-80
2021/01/29 06:21:34;;;;;;;1.10;0.20;;;19.60;99.90;;;;;;4989556;28;20478;-78
2021/01/29 06:24:09;;;;;;;1.42;0.25;;;19.50;99.90;;;;;;4987090;28;20412;-78
2021/01/29 06:27:13;;;;;;;0.65;0.20;;;19.50;99.90;;;;;;4973836;28;20409;-79
2021/01/29 06:30:07;;;;;;;3.38;0.40;;;19.50;99.90;;;;;;4988617;28;20409;-78
2021/01/29 06:32:58;;;;;;;1.30;0.40;;;19.50;99.90;;;;;;4979274;28;20899;-80
2021/01/29 06:35:47;;;;;;;1.50;0.30;;;19.50;99.90;;;;;;4955976;28;20509;-79
2021/01/29 06:38:18;;;;;;;1.48;0.32;;;19.50;99.90;;;;;;4988720;28;20412;-79
2021/01/29 06:41:26;;;;;;;2.78;0.50;;;19.50;99.90;;;;;;4989471;28;20466;-78
2021/01/29 06:44:19;;;;;;;2.05;0.40;;;19.60;99.90;;;;;;4961194;28;20462;-78
2021/01/29 06:47:07;;;;;;;1.52;0.35;;;19.60;99.90;;;;;;4979345;28;20405;-79
2021/01/29 06:50:22;;;;;;;2.80;0.47;;;19.70;99.90;;;;;;4979760;28;20892;-79
2021/01/29 06:53:04;;;;;;;1.58;0.35;;;19.60;99.90;;;;;;4944794;28;20412;-79
2021/01/29 06:56:05;;;;;;;3.85;0.60;;;19.50;99.90;;;;;;4986494;28;20400;-81
2021/01/29 06:58:56;;;;;;;1.52;0.50;;;19.50;99.90;;;;;;4984712;28;20405;-82
2021/01/29 07:02:13;;;;;;;4.43;0.60;;;19.50;99.90;;;;;;4989224;28;20397;-80
2021/01/29 07:05:17;;;;;;;2.60;0.40;;;19.40;99.90;;;;;;4967128;28;20445;-81
2021/01/29 07:08:06;;;;;;;2.70;0.50;;;19.50;99.90;;;;;;4983656;28;20449;-80
2021/01/29 07:10:49;;;;;;;2.55;0.50;;;19.50;99.90;;;;;;4989617;28;20476;-81
2021/01/29 07:13:19;;;;;;;2.33;0.50;;;19.50;99.90;;;;;;4988118;28;20400;-81
2021/01/29 07:16:03;;;;;;;3.65;0.52;;;19.50;99.90;;;;;;4988421;28;20551;-82
2021/01/29 07:19:01;;;;;;;3.70;0.40;;;19.50;99.90;;;;;;4989193;28;20389;-82
2021/01/29 07:22:04;;;;;;;4.23;0.70;;;19.50;99.90;;;;;;4989838;28;20393;-82
2021/01/29 07:24:50;;;;;;;2.05;0.47;;;19.50;99.90;;;;;;4990984;28;20903;-82
2021/01/29 07:27:59;;;;;;;2.57;0.40;;;19.50;99.90;;;;;;4991357;28;20403;-82
2021/01/29 07:30:56;;;;;;;2.72;0.60;;;19.50;99.90;;;;;;4992862;28;20441;-82
2021/01/29 07:33:23;;;;;;;3.15;0.60;;;19.50;99.90;;;;;;4993101;28;21003;-81
2021/01/29 07:36:34;;;;;;;3.67;0.60;;;19.50;99.90;;;;;;4992674;28;20384;-81
2021/01/29 07:39:23;;;;;;;4.25;0.80;;;19.50;99.90;;;;;;4959239;28;20398;-82
2021/01/29 07:42:08;;;;;;;1.77;0.60;;;19.50;99.90;;;;;;4974033;28;20367;-82
2021/01/29 07:44:35;;;;;;;3.28;0.60;;;19.50;99.90;;;;;;4973550;28;20742;-82
2021/01/29 07:47:08;;;;;;;3.33;0.63;;;19.50;99.90;;;;;;4983408;28;20692;-81
2021/01/29 07:49:41;;;;;;;1.95;0.55;;;19.50;99.90;;;;;;4993051;28;20377;-81
2021/01/29 07:52:11;;;;;;;2.40;0.60;;;19.50;99.90;;;;;;4988786;28;20406;-81
2021/01/29 07:55:23;;;;;;;3.10;0.63;;;19.50;99.90;;;;;;4973417;28;20383;-81
2021/01/29 07:58:27;;;;;;;3.78;0.50;;;19.50;99.90;;;;;;4984395;28;20485;-79
2021/01/29 08:01:17;;;;;;;2.10;0.50;;;19.50;99.90;;;;;;4992718;28;20384;-81
2021/01/29 08:04:13;;;;;;;3.55;0.70;;;19.50;99.90;;;;;;4991488;28;20408;-81
2021/01/29 08:06:56;;;;;;;2.90;0.40;;;19.60;99.90;;;;;;4992637;28;20385;-80
2021/01/29 08:09:35;;;;;;;1.57;0.40;;;19.60;99.90;;;;;;4992527;28;20405;-81
2021/01/29 08:12:25;;;;;;;3.08;0.30;;;19.60;99.90;;;;;;4992664;28;20408;-80
2021/01/29 08:15:10;;;;;;;3.80;0.60;;;19.60;99.90;;;;;;4992136;28;20385;-81
2021/01/29 08:18:06;;;;;;;1.60;0.30;;;19.60;99.90;;;;;;4992459;28;20385;-81
2021/01/29 08:21:09;;;;;;;1.55;0.50;;;19.60;99.90;;;;;;4983808;28;20911;-80
2021/01/29 08:23:57;;;;;;;4.60;0.60;;;19.50;99.90;;;;;;4992311;28;20389;-78
2021/01/29 08:26:43;;;;;;;2.10;0.40;;;19.50;99.90;;;;;;4974715;28;20468;-79
2021/01/29 08:29:28;;;;;;;1.80;0.43;;;19.50;99.90;;;;;;4992207;28;20388;-80
2021/01/29 08:32:31;;;;;;;2.42;0.60;;;19.50;99.90;;;;;;4991905;28;20421;-81
2021/01/29 08:35:18;;;;;;;2.50;0.70;;;19.50;99.90;;;;;;4991044;28;20408;-80
2021/01/29 08:37:58;;;;;;;3.30;0.50;;;19.50;99.90;;;;;;4991546;28;20883;-80
2021/01/29 08:40:48;;;;;;;2.95;0.60;;;19.50;99.90;;;;;;4992207;28;20381;-80
2021/01/29 08:43:39;;;;;;;2.10;0.65;;;19.50;99.90;;;;;;4988185;28;20405;-79
2021/01/29 08:46:24;;;;;;;2.38;0.80;;;19.50;99.90;;;;;;4986145;28;20801;-80
2021/01/29 08:49:12;;;;;;;6.18;0.95;;;19.50;99.90;;;;;;4987787;28;20389;-80
2021/01/29 08:52:06;;;;;;;3.35;0.55;;;19.50;99.90;;;;;;4986292;28;20786;-80
2021/01/29 08:54:53;;;;;;;2.33;0.40;;;19.50;99.90;;;;;;4985594;28;20404;-80
2021/01/29 08:57:42;;;;;;;3.05;0.20;;;19.50;99.90;;;;;;4959633;28;20492;-80
2021/01/29 09:00:21;;;;;;;2.50;0.75;;;19.50;99.90;;;;;;4986754;28;20916;-80
2021/01/29 09:05:29;;;;;;;1.38;0.45;;;19.60;99.90;;;;;;5078392;22;20447;-80
2021/01/29 09:08:04;;;;;;;2.47;0.60;;;19.50;99.90;;;;;;5041055;28;20783;-81
2021/01/29 09:11:09;;;;;;;3.15;0.60;;;19.60;99.90;;;;;;5028688;28;20415;-80
2021/01/29 09:13:39;;;;;;;2.65;0.60;;;19.60;99.90;;;;;;5034017;28;20408;-81
2021/01/29 09:16:27;;;;;;;3.95;0.80;;;19.60;99.90;;;;;;5034240;28;20413;-81
2021/01/29 09:19:07;;;;;;;4.15;0.80;;;19.60;99.90;;;;;;5027369;28;20409;-80
2021/01/29 09:21:56;;;;;;;2.13;0.52;;;19.60;99.90;;;;;;5032769;28;20421;-81
2021/01/29 09:24:42;;;;;;;4.07;0.60;;;19.60;99.90;;;;;;5032957;28;20416;-80
2021/01/29 09:27:15;;;;;;;4.22;0.73;;;19.60;99.90;;;;;;5029926;28;20397;-81
2021/01/29 09:30:22;;;;;;;2.10;0.50;;;19.70;99.90;;;;;;5034003;28;20393;-80
2021/01/29 09:32:56;;;;;;;3.80;0.50;;;19.70;99.90;;;;;;5022925;28;20430;-81
2021/01/29 09:35:32;;;;;;;2.45;0.50;;;19.70;99.90;;;;;;5029773;28;21317;-80
2021/01/29 09:38:03;;;;;;;1.40;0.40;;;19.60;99.90;;;;;;5035827;28;20876;-81
2021/01/29 09:40:36;;;;;;;3.20;0.57;;;19.70;99.90;;;;;;5011878;28;20405;-81
2021/01/29 09:43:25;;;;;;;1.38;0.40;;;19.70;99.90;;;;;;5033756;28;20933;-80
2021/01/29 09:45:55;;;;;;;1.20;0.20;;;19.70;99.90;;;;;;5037122;28;20408;-81
2021/01/29 09:48:25;;;;;;;0.85;0.30;;;19.70;99.90;;;;;;5039912;28;20452;-80
2021/01/29 09:51:18;;;;;;;2.78;0.40;;;19.80;99.90;;;;;;5017589;28;20405;-80
2021/01/29 09:54:12;;;;;;;1.87;0.53;;;19.70;99.90;;;;;;5026552;28;20888;-82
2021/01/29 09:56:45;;;;;;;3.27;0.50;;;19.70;99.90;;;;;;5033251;28;20394;-80
2021/01/29 09:59:33;;;;;;;3.40;0.50;;;19.80;99.90;;;;;;5034781;28;20387;-80
2021/01/29 10:02:40;;;;;;;3.38;0.80;;;19.80;99.90;;;;;;5035775;28;20754;-82
2021/01/29 10:05:28;;;;;;;2.90;0.80;;;19.80;99.90;;;;;;5011834;28;20425;-82
2021/01/29 10:08:19;;;;;;;5.07;0.75;;;19.80;99.90;;;;;;5028251;28;20444;-81
2021/01/29 10:11:01;;;;;;;2.53;0.63;;;19.80;99.90;;;;;;5026061;28;20413;-80
2021/01/29 10:13:41;;;;;;;4.53;0.85;;;19.80;99.90;;;;;;5025202;28;20457;-81
2021/01/29 10:16:23;;;;;;;4.35;0.60;;;19.80;99.90;;;;;;5040156;28;20431;-84
2021/01/29 10:19:30;;;;;;;2.20;0.47;;;19.80;99.90;;;;;;5026759;28;20420;-81
2021/01/29 10:22:00;;;;;;;1.80;0.50;;;19.80;99.90;;;;;;5016957;28;20830;-83
2021/01/29 10:25:06;;;;;;;2.60;0.40;;;19.80;99.90;;;;;;5027711;28;20400;-82
2021/01/29 10:27:58;;;;;;;2.20;0.60;;;19.80;99.90;;;;;;5019968;28;20406;-82
2021/01/29 10:30:37;;;;;;;5.50;0.57;;;19.80;99.90;;;;;;5035981;28;20401;-81
2021/01/29 10:33:08;;;;;;;2.28;0.30;;;19.80;99.90;;;;;;5013011;28;20858;-81
2021/01/29 10:35:40;;;;;;;0.75;0.30;;;19.80;99.90;;;;;;5039577;28;20389;-81
2021/01/29 10:38:26;;;;;;;0.73;0.40;;;19.80;99.90;;;;;;5029834;28;20418;-81
2021/01/29 10:41:21;;;;;;;0.98;0.22;;;19.80;99.90;;;;;;5032688;28;20391;-80
2021/01/29 10:44:00;;;;;;;2.10;0.37;;;19.80;99.90;;;;;;5025989;28;20401;-81
2021/01/29 10:47:04;;;;;;;4.20;0.40;;;19.80;99.90;;;;;;5035769;28;20427;-81
2021/01/29 10:49:43;;;;;;;2.00;0.30;;;19.80;99.90;;;;;;5031345;28;20772;-80
2021/01/29 10:52:21;;;;;;;1.40;0.50;;;19.80;99.90;;;;;;5036390;28;20412;-81
2021/01/29 10:54:48;;;;;;;2.10;0.22;;;19.80;99.90;;;;;;5029698;28;20445;-81
2021/01/29 10:57:43;;;;;;;0.73;0.40;;;19.80;99.90;;;;;;5041245;28;20415;-81
2021/01/29 11:00:17;;;;;;;1.80;0.20;;;19.80;99.90;;;;;;5025500;28;20384;-81
2021/01/29 11:03:04;;;;;;;2.00;0.40;;;19.80;99.90;;;;;;5025624;28;20816;-81
2021/01/29 11:05:33;;;;;;;0.63;0.25;;;19.80;99.90;;;;;;5035815;28;20412;-81
2021/01/29 11:08:39;;;;;;;1.30;0.30;;;19.80;99.90;;;;;;5028503;28;20381;-81
2021/01/29 11:11:39;;;;;;;2.35;0.38;;;19.80;99.90;;;;;;5032376;28;20412;-82
2021/01/29 11:14:23;;;;;;;1.23;0.20;;;19.90;99.90;;;;;;5026166;28;20911;-82
2021/01/29 11:16:59;;;;;;;1.92;0.30;;;19.80;99.90;;;;;;5026240;28;20374;-83
2021/01/29 11:19:43;;;;;;;1.23;0.40;;;19.90;99.90;;;;;;5025955;28;20384;-81
2021/01/29 11:22:39;;;;;;;2.20;0.57;;;19.80;99.90;;;;;;5026203;28;20420;-81
2021/01/29 11:25:28;;;;;;;5.38;0.88;;;19.90;99.90;;;;;;5025565;28;20472;-82
2021/01/29 11:28:20;;;;;;;2.97;0.80;;;19.90;99.90;;;;;;5026974;28;20392;-82
2021/01/29 11:31:03;;;;;;;5.05;0.95;;;19.90;99.90;;;;;;5028506;28;20460;-81
2021/01/29 11:33:35;;;;;;;5.00;1.00;;;19.90;99.90;;;;;;5035187;28;20462;-82
2021/01/29 11:36:15;;;;;;;6.75;1.25;;;19.90;99.90;;;;;;5046346;28;20712;-80
2021/01/29 11:39:08;;;;;;;9.82;2.03;;;19.90;99.90;;;;;;5025795;28;20372;-82
2021/01/29 11:41:58;;;;;;;19.45;3.10;;;19.90;99.90;;;;;;5037004;28;20430;-81
2021/01/29 11:44:46;;;;;;;19.48;3.42;;;19.90;99.90;;;;;;5031894;28;20402;-81
2021/01/29 11:47:34;;;;;;;21.77;3.72;;;19.90;99.90;;;;;;5043692;28;20399;-81
2021/01/29 11:50:17;;;;;;;24.35;4.05;;;19.90;99.90;;;;;;5033500;28;20459;-80
2021/01/29 11:53:07;;;;;;;20.25;3.33;;;19.90;99.90;;;;;;5035569;28;20635;-81
2021/01/29 11:55:56;;;;;;;20.83;3.30;;;19.90;99.90;;;;;;5038241;28;20900;-80
2021/01/29 11:58:49;;;;;;;23.80;3.50;;;19.90;99.90;;;;;;5024838;28;20398;-80
2021/01/29 12:01:39;;;;;;;21.10;3.17;;;19.90;99.90;;;;;;5029100;28;20420;-79
2021/01/29 12:04:33;;;;;;;18.65;2.65;;;19.90;99.90;;;;;;5033558;28;20395;-79
2021/01/29 12:07:33;;;;;;;13.00;2.37;;;19.90;99.90;;;;;;5030865;28;20407;-80
2021/01/29 12:10:19;;;;;;;12.85;2.50;;;19.90;99.90;;;;;;5009574;28;20400;-83
2021/01/29 12:13:32;;;;;;;13.25;2.15;;;19.90;99.90;;;;;;5034694;28;20393;-81
2021/01/29 12:16:02;;;;;;;18.70;2.30;;;20.00;99.90;;;;;;5031366;28;20386;-81
2021/01/29 12:18:34;;;;;;;13.13;2.30;;;20.00;99.90;;;;;;5038182;28;20391;-81
2021/01/29 12:21:24;;;;;;;15.50;2.53;;;19.90;99.90;;;;;;5041286;28;20428;-81
2021/01/29 12:24:22;;;;;;;14.93;2.50;;;19.90;99.90;;;;;;5031253;28;20512;-82
2021/01/29 12:26:58;;;;;;;11.87;2.20;;;19.90;99.90;;;;;;5032892;28;20469;-81
2021/01/29 12:29:50;;;;;;;12.30;2.38;;;20.00;99.90;;;;;;5033323;28;20448;-81
2021/01/29 12:32:24;;;;;;;16.10;2.28;;;20.00;99.90;;;;;;5036925;28;20851;-81
2021/01/29 12:35:13;;;;;;;8.80;2.03;;;20.00;99.90;;;;;;5030811;28;20455;-81
2021/01/29 12:38:00;;;;;;;12.02;1.90;;;20.00;99.90;;;;;;5040946;28;20392;-81
2021/01/29 12:40:33;;;;;;;12.77;2.17;;;20.00;99.90;;;;;;5037944;28;20395;-83
2021/01/29 12:43:22;;;;;;;15.85;1.80;;;20.00;99.90;;;;;;5034063;28;20388;-81
2021/01/29 12:45:58;;;;;;;8.82;1.80;;;20.00;99.90;;;;;;5041548;28;20395;-81
2021/01/29 12:48:43;;;;;;;11.25;1.65;;;20.00;99.90;;;;;;5035665;28;20401;-81
2021/01/29 12:51:33;;;;;;;12.55;1.58;;;20.00;99.90;;;;;;5030347;28;20401;-81
2021/01/29 12:54:29;;;;;;;11.00;1.48;;;20.00;99.90;;;;;;5030066;28;20404;-80
2021/01/29 12:57:04;;;;;;;8.90;1.52;;;20.00;99.90;;;;;;5030618;28;20428;-80
2021/01/29 12:59:46;;;;;;;6.43;1.40;;;20.00;99.90;;;;;;5041188;28;20397;-81
2021/01/29 13:02:33;;;;;;;7.72;1.88;;;20.00;99.90;;;;;;5035699;28;20935;-81
2021/01/29 13:05:09;;;;;;;8.93;1.50;;;20.10;99.90;;;;;;5035034;28;20466;-80
2021/01/29 13:07:54;;;;;;;7.35;1.45;;;20.10;99.90;;;;;;5031918;28;20888;-80
2021/01/29 13:10:36;;;;;;;10.27;1.40;;;20.10;99.90;;;;;;5033313;28;20401;-80
2021/01/29 13:13:07;;;;;;;9.25;1.83;;;20.10;99.90;;;;;;5035554;28;20443;-81
2021/01/29 13:15:56;;;;;;;13.10;1.77;;;20.10;99.90;;;;;;5034259;28;20388;-81
2021/01/29 13:18:44;;;;;;;10.63;1.95;;;20.10;99.90;;;;;;5035131;28;20479;-81
2021/01/29 13:21:29;;;;;;;9.77;2.10;;;20.10;99.90;;;;;;5029008;28;20460;-80
2021/01/29 13:23:59;;;;;;;16.42;2.47;;;20.10;99.90;;;;;;5037281;28;20944;-81
2021/01/29 13:26:52;;;;;;;13.25;2.40;;;20.10;99.90;;;;;;5038239;28;20454;-81
2021/01/29 13:29:26;;;;;;;10.32;2.60;;;20.10;99.90;;;;;;5031387;28;20882;-80
2021/01/29 13:32:16;;;;;;;16.73;2.50;;;20.10;99.90;;;;;;5029591;28;20540;-80
2021/01/29 13:34:44;;;;;;;17.15;2.83;;;20.10;99.90;;;;;;5020123;28;20894;-80
2021/01/29 13:37:26;;;;;;;12.33;2.30;;;20.10;99.90;;;;;;5040875;28;20537;-81
2021/01/29 13:40:14;;;;;;;11.43;2.33;;;20.10;99.90;;;;;;5030133;28;20883;-79
2021/01/29 13:42:43;;;;;;;19.48;3.00;;;20.10;99.90;;;;;;5046054;28;20445;-80
2021/01/29 13:45:16;;;;;;;15.73;2.40;;;20.10;99.90;;;;;;5049610;28;20386;-81
2021/01/29 13:47:51;;;;;;;17.45;2.97;;;20.10;99.90;;;;;;5028641;28;20993;-80
2021/01/29 13:50:24;;;;;;;19.25;3.63;;;20.10;99.90;;;;;;5020576;28;20993;-80
2021/01/29 13:52:57;;;;;;;20.58;3.05;;;20.20;99.90;;;;;;5041632;28;20442;-81
2021/01/29 13:55:42;;;;;;;22.00;3.55;;;20.20;99.90;;;;;;5028040;28;20454;-80
2021/01/29 13:58:28;;;;;;;18.85;3.30;;;20.10;99.90;;;;;;5030384;28;20464;-80
2021/01/29 14:01:15;;;;;;;29.55;4.22;;;20.20;99.90;;;;;;5040489;28;20858;-81
2021/01/29 14:04:24;;;;;;;19.93;3.47;;;20.20;99.90;;;;;;5034456;28;20409;-81
2021/01/29 14:06:52;;;;;;;17.88;2.97;;;20.10;99.90;;;;;;4973144;28;20449;-80
2021/01/29 14:09:20;;;;;;;23.87;3.57;;;20.10;99.90;;;;;;4986974;28;20492;-80